sensor_id;sensor_type;location;lat;lon;timestamp;pressure;altitude;pressure_sealevel;temperature;humidity
50368;BME280;36281;34.132;-118.018;2023-03-26T00:01:48;100134.38;;;19.98;29.73
50368;BME280;36281;34.132;-118.018;2023-03-26T00:04:18;100135.44;;;19.97;29.00
50368;BME280;36281;34.132;-118.018;2023-03-26T00:06:51;100133.25;;;19.83;30.03
50368;BME280;36281;34.132;-118.018;2023-03-26T00:09:20;100134.06;;;19.84;29.57
50368;BME280;36281;34.132;-118.018;2023-03-26T00:11:49;100139.72;;;19.77;29.47
50368;BME280;36281;34.132;-118.018;2023-03-26T00:14:19;100143.47;;;19.71;29.76
50368;BME280;36281;34.132;-118.018;2023-03-26T00:16:48;100139.69;;;19.67;29.45
50368;BME280;36281;34.132;-118.018;2023-03-26T00:19:17;100143.16;;;19.62;28.76
50368;BME280;36281;34.132;-118.018;2023-03-26T00:21:46;100144.72;;;19.53;29.19
50368;BME280;36281;34.132;-118.018;2023-03-26T00:24:17;100139.88;;;19.45;29.16
50368;BME280;36281;34.132;-118.018;2023-03-26T00:26:46;100137.94;;;19.35;29.51
50368;BME280;36281;34.132;-118.018;2023-03-26T00:29:20;100134.44;;;19.30;30.07
50368;BME280;36281;34.132;-118.018;2023-03-26T00:31:55;100129.00;;;19.15;29.90
50368;BME280;36281;34.132;-118.018;2023-03-26T00:34:24;100133.25;;;19.05;29.88
50368;BME280;36281;34.132;-118.018;2023-03-26T00:36:54;100132.66;;;18.98;29.80
50368;BME280;36281;34.132;-118.018;2023-03-26T00:39:25;100136.88;;;18.84;29.58
50368;BME280;36281;34.132;-118.018;2023-03-26T00:41:54;100138.50;;;18.80;29.90
50368;BME280;36281;34.132;-118.018;2023-03-26T00:44:23;100133.31;;;18.73;29.96
50368;BME280;36281;34.132;-118.018;2023-03-26T00:46:52;100133.47;;;18.56;31.07
50368;BME280;36281;34.132;-118.018;2023-03-26T00:49:21;100136.72;;;18.64;30.56
50368;BME280;36281;34.132;-118.018;2023-03-26T00:51:54;100149.84;;;18.60;30.48
50368;BME280;36281;34.132;-118.018;2023-03-26T00:54:24;100151.34;;;18.46;30.95
50368;BME280;36281;34.132;-118.018;2023-03-26T00:56:54;100142.16;;;18.37;30.55
50368;BME280;36281;34.132;-118.018;2023-03-26T00:59:23;100149.06;;;18.27;30.57
50368;BME280;36281;34.132;-118.018;2023-03-26T01:01:52;100146.03;;;18.19;31.05
50368;BME280;36281;34.132;-118.018;2023-03-26T01:04:27;100149.94;;;18.06;30.73
50368;BME280;36281;34.132;-118.018;2023-03-26T01:06:58;100157.69;;;18.02;30.96
50368;BME280;36281;34.132;-118.018;2023-03-26T01:09:34;100160.31;;;17.97;31.46
50368;BME280;36281;34.132;-118.018;2023-03-26T01:12:05;100153.53;;;17.90;31.27
50368;BME280;36281;34.132;-118.018;2023-03-26T01:14:35;100152.13;;;17.82;31.82
50368;BME280;36281;34.132;-118.018;2023-03-26T01:17:06;100157.16;;;17.78;32.05
50368;BME280;36281;34.132;-118.018;2023-03-26T01:19:41;100158.63;;;17.69;31.82
50368;BME280;36281;34.132;-118.018;2023-03-26T01:22:14;100155.09;;;17.64;31.99
50368;BME280;36281;34.132;-118.018;2023-03-26T01:24:46;100156.38;;;17.56;32.11
50368;BME280;36281;34.132;-118.018;2023-03-26T01:27:29;100169.69;;;17.51;32.84
50368;BME280;36281;34.132;-118.018;2023-03-26T01:30:07;100149.38;;;17.33;32.90
50368;BME280;36281;34.132;-118.018;2023-03-26T01:32:49;100156.63;;;17.33;33.12
50368;BME280;36281;34.132;-118.018;2023-03-26T01:35:27;100165.13;;;17.29;33.30
50368;BME280;36281;34.132;-118.018;2023-03-26T01:38:05;100163.38;;;17.18;33.61
50368;BME280;36281;34.132;-118.018;2023-03-26T01:40:45;100169.41;;;17.09;33.64
50368;BME280;36281;34.132;-118.018;2023-03-26T01:43:24;100163.19;;;17.03;34.06
50368;BME280;36281;34.132;-118.018;2023-03-26T01:45:55;100161.25;;;16.98;34.12
50368;BME280;36281;34.132;-118.018;2023-03-26T01:48:33;100161.09;;;16.88;34.37
50368;BME280;36281;34.132;-118.018;2023-03-26T01:51:03;100177.63;;;16.85;34.15
50368;BME280;36281;34.132;-118.018;2023-03-26T01:53:34;100175.38;;;16.77;34.78
50368;BME280;36281;34.132;-118.018;2023-03-26T01:56:10;100177.38;;;16.70;34.92
50368;BME280;36281;34.132;-118.018;2023-03-26T01:58:54;100173.81;;;16.64;35.44
50368;BME280;36281;34.132;-118.018;2023-03-26T02:01:31;100156.47;;;16.50;36.46
50368;BME280;36281;34.132;-118.018;2023-03-26T02:04:07;100179.25;;;16.52;36.55
50368;BME280;36281;34.132;-118.018;2023-03-26T02:06:41;100172.22;;;16.46;37.18
50368;BME280;36281;34.132;-118.018;2023-03-26T02:09:15;100171.53;;;16.39;37.97
50368;BME280;36281;34.132;-118.018;2023-03-26T02:11:48;100179.16;;;16.31;38.42
50368;BME280;36281;34.132;-118.018;2023-03-26T02:14:18;100181.19;;;16.23;38.38
50368;BME280;36281;34.132;-118.018;2023-03-26T02:16:47;100176.47;;;16.14;40.18
50368;BME280;36281;34.132;-118.018;2023-03-26T02:19:16;100170.69;;;16.05;39.88
50368;BME280;36281;34.132;-118.018;2023-03-26T02:21:49;100176.09;;;15.93;40.57
50368;BME280;36281;34.132;-118.018;2023-03-26T02:24:30;100184.38;;;15.80;41.50
50368;BME280;36281;34.132;-118.018;2023-03-26T02:27:00;100182.22;;;15.65;41.62
50368;BME280;36281;34.132;-118.018;2023-03-26T02:29:29;100180.94;;;15.56;42.37
50368;BME280;36281;34.132;-118.018;2023-03-26T02:31:59;100170.22;;;15.39;42.43
50368;BME280;36281;34.132;-118.018;2023-03-26T02:34:29;100182.88;;;15.32;42.40
50368;BME280;36281;34.132;-118.018;2023-03-26T02:36:59;100181.63;;;15.23;43.84
50368;BME280;36281;34.132;-118.018;2023-03-26T02:39:28;100190.34;;;15.07;44.89
50368;BME280;36281;34.132;-118.018;2023-03-26T02:41:57;100182.91;;;14.97;43.74
50368;BME280;36281;34.132;-118.018;2023-03-26T02:44:28;100188.84;;;14.87;44.38
50368;BME280;36281;34.132;-118.018;2023-03-26T02:46:57;100193.56;;;14.85;45.30
50368;BME280;36281;34.132;-118.018;2023-03-26T02:49:26;100198.66;;;14.75;46.53
50368;BME280;36281;34.132;-118.018;2023-03-26T02:51:55;100193.09;;;14.65;46.80
50368;BME280;36281;34.132;-118.018;2023-03-26T02:54:24;100192.03;;;14.54;47.46
50368;BME280;36281;34.132;-118.018;2023-03-26T02:56:53;100189.94;;;14.56;47.61
50368;BME280;36281;34.132;-118.018;2023-03-26T02:59:22;100195.91;;;14.40;48.31
50368;BME280;36281;34.132;-118.018;2023-03-26T03:01:53;100191.88;;;14.37;48.84
50368;BME280;36281;34.132;-118.018;2023-03-26T03:04:22;100203.91;;;14.28;48.96
50368;BME280;36281;34.132;-118.018;2023-03-26T03:06:51;100188.41;;;14.07;49.15
50368;BME280;36281;34.132;-118.018;2023-03-26T03:09:25;100207.53;;;14.04;50.28
50368;BME280;36281;34.132;-118.018;2023-03-26T03:11:54;100208.72;;;13.89;51.16
50368;BME280;36281;34.132;-118.018;2023-03-26T03:14:23;100204.31;;;13.83;50.98
50368;BME280;36281;34.132;-118.018;2023-03-26T03:16:54;100202.75;;;13.76;50.85
50368;BME280;36281;34.132;-118.018;2023-03-26T03:19:23;100204.69;;;13.68;51.60
50368;BME280;36281;34.132;-118.018;2023-03-26T03:21:52;100216.69;;;13.59;52.14
50368;BME280;36281;34.132;-118.018;2023-03-26T03:24:21;100225.31;;;13.55;51.61
50368;BME280;36281;34.132;-118.018;2023-03-26T03:26:50;100232.50;;;13.54;52.12
50368;BME280;36281;34.132;-118.018;2023-03-26T03:29:25;100231.06;;;13.52;52.14
50368;BME280;36281;34.132;-118.018;2023-03-26T03:31:56;100228.94;;;13.42;53.30
50368;BME280;36281;34.132;-118.018;2023-03-26T03:34:27;100228.59;;;13.38;52.97
50368;BME280;36281;34.132;-118.018;2023-03-26T03:36:56;100236.19;;;13.35;52.19
50368;BME280;36281;34.132;-118.018;2023-03-26T03:39:25;100225.97;;;13.32;52.77
50368;BME280;36281;34.132;-118.018;2023-03-26T03:41:54;100229.91;;;13.29;53.06
50368;BME280;36281;34.132;-118.018;2023-03-26T03:44:23;100228.53;;;13.20;53.08
50368;BME280;36281;34.132;-118.018;2023-03-26T03:46:52;100234.72;;;13.14;53.38
50368;BME280;36281;34.132;-118.018;2023-03-26T03:49:25;100236.78;;;13.12;52.98
50368;BME280;36281;34.132;-118.018;2023-03-26T03:51:54;100229.84;;;13.11;53.84
50368;BME280;36281;34.132;-118.018;2023-03-26T03:54:23;100233.16;;;13.06;54.20
50368;BME280;36281;34.132;-118.018;2023-03-26T03:56:54;100235.41;;;13.03;53.95
50368;BME280;36281;34.132;-118.018;2023-03-26T03:59:24;100239.78;;;12.97;54.50
50368;BME280;36281;34.132;-118.018;2023-03-26T04:01:53;100247.66;;;12.85;54.92
50368;BME280;36281;34.132;-118.018;2023-03-26T04:04:24;100244.25;;;12.78;55.08
50368;BME280;36281;34.132;-118.018;2023-03-26T04:06:53;100243.06;;;12.74;55.68
50368;BME280;36281;34.132;-118.018;2023-03-26T04:09:23;100243.25;;;12.73;55.20
50368;BME280;36281;34.132;-118.018;2023-03-26T04:11:52;100251.91;;;12.61;56.16
50368;BME280;36281;34.132;-118.018;2023-03-26T04:14:21;100234.06;;;12.44;56.30
50368;BME280;36281;34.132;-118.018;2023-03-26T04:16:50;100251.16;;;12.54;56.28
50368;BME280;36281;34.132;-118.018;2023-03-26T04:19:19;100258.16;;;12.49;57.17
50368;BME280;36281;34.132;-118.018;2023-03-26T04:21:50;100244.09;;;12.41;57.54
50368;BME280;36281;34.132;-118.018;2023-03-26T04:24:19;100229.13;;;12.15;58.05
50368;BME280;36281;34.132;-118.018;2023-03-26T04:26:49;100262.16;;;12.26;58.75
50368;BME280;36281;34.132;-118.018;2023-03-26T04:29:18;100256.72;;;12.14;58.91
50368;BME280;36281;34.132;-118.018;2023-03-26T04:31:53;100259.38;;;12.08;59.31
50368;BME280;36281;34.132;-118.018;2023-03-26T04:34:26;100265.31;;;12.03;59.72
50368;BME280;36281;34.132;-118.018;2023-03-26T04:36:59;100257.34;;;12.03;59.43
50368;BME280;36281;34.132;-118.018;2023-03-26T04:39:29;100256.38;;;11.98;58.78
50368;BME280;36281;34.132;-118.018;2023-03-26T04:42:01;100256.00;;;11.87;59.96
50368;BME280;36281;34.132;-118.018;2023-03-26T04:44:30;100255.81;;;11.82;60.34
50368;BME280;36281;34.132;-118.018;2023-03-26T04:47:02;100267.25;;;11.76;61.28
50368;BME280;36281;34.132;-118.018;2023-03-26T04:49:31;100261.34;;;11.74;61.59
50368;BME280;36281;34.132;-118.018;2023-03-26T04:52:02;100252.56;;;11.67;60.67
50368;BME280;36281;34.132;-118.018;2023-03-26T04:54:31;100272.59;;;11.63;59.82
50368;BME280;36281;34.132;-118.018;2023-03-26T04:57:02;100260.97;;;11.64;59.36
50368;BME280;36281;34.132;-118.018;2023-03-26T04:59:33;100261.16;;;11.62;59.09
50368;BME280;36281;34.132;-118.018;2023-03-26T05:02:04;100271.41;;;11.59;58.86
50368;BME280;36281;34.132;-118.018;2023-03-26T05:04:33;100271.59;;;11.57;58.80
50368;BME280;36281;34.132;-118.018;2023-03-26T05:07:06;100278.94;;;11.55;58.00
50368;BME280;36281;34.132;-118.018;2023-03-26T05:09:35;100269.38;;;11.54;56.47
50368;BME280;36281;34.132;-118.018;2023-03-26T05:12:04;100285.28;;;11.54;52.76
50368;BME280;36281;34.132;-118.018;2023-03-26T05:14:33;100263.63;;;11.57;44.17
50368;BME280;36281;34.132;-118.018;2023-03-26T05:17:04;100267.88;;;11.72;38.73
50368;BME280;36281;34.132;-118.018;2023-03-26T05:19:38;100287.84;;;11.87;44.39
50368;BME280;36281;34.132;-118.018;2023-03-26T05:22:10;100298.09;;;11.84;49.34
50368;BME280;36281;34.132;-118.018;2023-03-26T05:24:39;100290.09;;;11.90;51.61
50368;BME280;36281;34.132;-118.018;2023-03-26T05:27:12;100289.50;;;11.82;47.99
50368;BME280;36281;34.132;-118.018;2023-03-26T05:29:41;100290.31;;;11.89;44.24
50368;BME280;36281;34.132;-118.018;2023-03-26T05:32:10;100296.81;;;11.93;45.29
50368;BME280;36281;34.132;-118.018;2023-03-26T05:34:40;100279.28;;;11.85;46.03
50368;BME280;36281;34.132;-118.018;2023-03-26T05:37:11;100292.94;;;11.96;46.17
50368;BME280;36281;34.132;-118.018;2023-03-26T05:39:41;100294.56;;;11.97;45.48
50368;BME280;36281;34.132;-118.018;2023-03-26T05:42:11;100286.63;;;11.90;45.66
50368;BME280;36281;34.132;-118.018;2023-03-26T05:44:40;100293.34;;;11.93;42.87
50368;BME280;36281;34.132;-118.018;2023-03-26T05:47:09;100295.00;;;11.94;41.92
50368;BME280;36281;34.132;-118.018;2023-03-26T05:49:38;100298.25;;;11.96;42.37
50368;BME280;36281;34.132;-118.018;2023-03-26T05:52:07;100313.78;;;11.72;40.34
50368;BME280;36281;34.132;-118.018;2023-03-26T05:54:38;100310.75;;;11.82;41.94
50368;BME280;36281;34.132;-118.018;2023-03-26T05:57:07;100298.28;;;11.82;40.27
50368;BME280;36281;34.132;-118.018;2023-03-26T05:59:36;100311.97;;;11.86;36.88
50368;BME280;36281;34.132;-118.018;2023-03-26T06:02:06;100305.44;;;11.88;36.17
50368;BME280;36281;34.132;-118.018;2023-03-26T06:04:35;100313.56;;;11.94;38.91
50368;BME280;36281;34.132;-118.018;2023-03-26T06:07:08;100315.59;;;11.92;40.79
50368;BME280;36281;34.132;-118.018;2023-03-26T06:09:42;100325.81;;;11.95;43.35
50368;BME280;36281;34.132;-118.018;2023-03-26T06:12:11;100324.19;;;11.94;45.00
50368;BME280;36281;34.132;-118.018;2023-03-26T06:14:40;100321.94;;;11.90;46.07
50368;BME280;36281;34.132;-118.018;2023-03-26T06:17:10;100330.94;;;11.89;46.56
50368;BME280;36281;34.132;-118.018;2023-03-26T06:19:39;100326.44;;;11.83;47.91
50368;BME280;36281;34.132;-118.018;2023-03-26T06:22:08;100335.66;;;11.74;49.03
50368;BME280;36281;34.132;-118.018;2023-03-26T06:24:38;100337.47;;;11.67;49.59
50368;BME280;36281;34.132;-118.018;2023-03-26T06:27:08;100338.31;;;11.61;50.65
50368;BME280;36281;34.132;-118.018;2023-03-26T06:29:38;100334.25;;;11.52;50.99
50368;BME280;36281;34.132;-118.018;2023-03-26T06:32:07;100332.41;;;11.46;50.88
50368;BME280;36281;34.132;-118.018;2023-03-26T06:34:46;100328.34;;;11.36;51.69
50368;BME280;36281;34.132;-118.018;2023-03-26T06:37:15;100329.78;;;11.32;51.72
50368;BME280;36281;34.132;-118.018;2023-03-26T06:39:44;100334.88;;;11.27;50.50
50368;BME280;36281;34.132;-118.018;2023-03-26T06:42:15;100346.50;;;11.20;50.53
50368;BME280;36281;34.132;-118.018;2023-03-26T06:44:44;100341.41;;;11.11;50.38
50368;BME280;36281;34.132;-118.018;2023-03-26T06:47:13;100327.53;;;11.03;50.92
50368;BME280;36281;34.132;-118.018;2023-03-26T06:49:42;100322.66;;;11.00;50.96
50368;BME280;36281;34.132;-118.018;2023-03-26T06:52:12;100330.41;;;10.95;50.90
50368;BME280;36281;34.132;-118.018;2023-03-26T06:54:41;100327.53;;;10.90;52.10
50368;BME280;36281;34.132;-118.018;2023-03-26T06:57:12;100322.22;;;10.90;51.99
50368;BME280;36281;34.132;-118.018;2023-03-26T06:59:43;100320.19;;;10.85;51.89
50368;BME280;36281;34.132;-118.018;2023-03-26T07:02:12;100314.69;;;10.80;52.46
50368;BME280;36281;34.132;-118.018;2023-03-26T07:04:41;100308.56;;;10.79;52.85
50368;BME280;36281;34.132;-118.018;2023-03-26T07:07:10;100314.84;;;10.72;53.83
50368;BME280;36281;34.132;-118.018;2023-03-26T07:09:43;100305.06;;;10.66;54.21
50368;BME280;36281;34.132;-118.018;2023-03-26T07:12:12;100305.25;;;10.51;53.71
50368;BME280;36281;34.132;-118.018;2023-03-26T07:14:42;100325.63;;;10.57;53.91
50368;BME280;36281;34.132;-118.018;2023-03-26T07:17:11;100323.78;;;10.51;53.23
50368;BME280;36281;34.132;-118.018;2023-03-26T07:19:41;100328.66;;;10.41;53.37
50368;BME280;36281;34.132;-118.018;2023-03-26T07:22:14;100333.28;;;10.32;53.76
50368;BME280;36281;34.132;-118.018;2023-03-26T07:24:47;100325.13;;;10.27;53.28
50368;BME280;36281;34.132;-118.018;2023-03-26T07:27:25;100330.63;;;10.25;52.90
50368;BME280;36281;34.132;-118.018;2023-03-26T07:30:04;100322.00;;;10.10;52.86
50368;BME280;36281;34.132;-118.018;2023-03-26T07:32:39;100331.56;;;10.11;53.34
50368;BME280;36281;34.132;-118.018;2023-03-26T07:35:14;100338.69;;;10.10;54.61
50368;BME280;36281;34.132;-118.018;2023-03-26T07:37:52;100343.53;;;10.07;55.46
50368;BME280;36281;34.132;-118.018;2023-03-26T07:40:44;100342.94;;;10.05;54.37
50368;BME280;36281;34.132;-118.018;2023-03-26T07:43:28;100334.09;;;9.91;54.21
50368;BME280;36281;34.132;-118.018;2023-03-26T07:46:03;100341.00;;;9.86;54.77
50368;BME280;36281;34.132;-118.018;2023-03-26T07:48:39;100336.25;;;9.74;54.61
50368;BME280;36281;34.132;-118.018;2023-03-26T07:51:09;100340.72;;;9.74;55.01
50368;BME280;36281;34.132;-118.018;2023-03-26T07:53:39;100341.53;;;9.74;55.24
50368;BME280;36281;34.132;-118.018;2023-03-26T07:56:13;100340.88;;;9.66;55.71
50368;BME280;36281;34.132;-118.018;2023-03-26T07:58:54;100340.81;;;9.59;56.08
50368;BME280;36281;34.132;-118.018;2023-03-26T08:01:43;100343.63;;;9.51;56.60
50368;BME280;36281;34.132;-118.018;2023-03-26T08:04:24;100353.41;;;9.50;57.34
50368;BME280;36281;34.132;-118.018;2023-03-26T08:07:02;100352.06;;;9.40;57.36
50368;BME280;36281;34.132;-118.018;2023-03-26T08:09:37;100358.13;;;9.33;57.65
50368;BME280;36281;34.132;-118.018;2023-03-26T08:12:17;100355.69;;;9.32;58.67
50368;BME280;36281;34.132;-118.018;2023-03-26T08:14:57;100354.22;;;9.29;57.94
50368;BME280;36281;34.132;-118.018;2023-03-26T08:17:33;100356.06;;;9.29;56.20
50368;BME280;36281;34.132;-118.018;2023-03-26T08:20:13;100360.94;;;9.25;56.68
50368;BME280;36281;34.132;-118.018;2023-03-26T08:22:54;100368.63;;;9.20;56.62
50368;BME280;36281;34.132;-118.018;2023-03-26T08:25:28;100361.66;;;9.19;57.66
50368;BME280;36281;34.132;-118.018;2023-03-26T08:28:14;100354.06;;;9.10;56.81
50368;BME280;36281;34.132;-118.018;2023-03-26T08:30:47;100364.06;;;9.14;56.60
50368;BME280;36281;34.132;-118.018;2023-03-26T08:33:19;100385.53;;;9.04;57.11
50368;BME280;36281;34.132;-118.018;2023-03-26T08:35:49;100379.00;;;9.00;56.99
50368;BME280;36281;34.132;-118.018;2023-03-26T08:38:19;100383.03;;;8.96;57.25
50368;BME280;36281;34.132;-118.018;2023-03-26T08:50:35;100396.59;;;8.72;58.53
50368;BME280;36281;34.132;-118.018;2023-03-26T08:56:19;100389.97;;;8.61;59.02
50368;BME280;36281;34.132;-118.018;2023-03-26T09:02:30;100391.06;;;8.52;59.55
50368;BME280;36281;34.132;-118.018;2023-03-26T09:05:46;100384.72;;;8.46;58.79
50368;BME280;36281;34.132;-118.018;2023-03-26T09:12:17;100375.88;;;8.39;59.94
50368;BME280;36281;34.132;-118.018;2023-03-26T09:21:46;100372.94;;;8.34;59.82
50368;BME280;36281;34.132;-118.018;2023-03-26T09:24:44;100380.19;;;8.25;60.46
50368;BME280;36281;34.132;-118.018;2023-03-26T09:27:37;100371.16;;;8.20;61.10
50368;BME280;36281;34.132;-118.018;2023-03-26T09:33:30;100349.50;;;8.10;61.19
50368;BME280;36281;34.132;-118.018;2023-03-26T09:36:17;100346.16;;;8.01;61.17
50368;BME280;36281;34.132;-118.018;2023-03-26T09:38:53;100329.41;;;7.94;61.90
50368;BME280;36281;34.132;-118.018;2023-03-26T09:41:37;100349.63;;;8.01;61.92
50368;BME280;36281;34.132;-118.018;2023-03-26T09:47:46;100338.97;;;7.95;61.83
50368;BME280;36281;34.132;-118.018;2023-03-26T09:50:43;100335.97;;;7.83;61.71
50368;BME280;36281;34.132;-118.018;2023-03-26T09:53:39;100329.16;;;7.74;62.74
50368;BME280;36281;34.132;-118.018;2023-03-26T09:56:29;100307.06;;;7.60;63.17
50368;BME280;36281;34.132;-118.018;2023-03-26T09:59:26;100325.25;;;7.70;63.59
50368;BME280;36281;34.132;-118.018;2023-03-26T10:02:13;100322.16;;;7.66;63.80
50368;BME280;36281;34.132;-118.018;2023-03-26T10:05:02;100322.97;;;7.52;64.44
50368;BME280;36281;34.132;-118.018;2023-03-26T10:07:48;100309.94;;;7.36;63.98
50368;BME280;36281;34.132;-118.018;2023-03-26T10:10:28;100331.00;;;7.36;64.42
50368;BME280;36281;34.132;-118.018;2023-03-26T10:13:07;100340.47;;;7.45;64.82
50368;BME280;36281;34.132;-118.018;2023-03-26T10:15:56;100348.38;;;7.45;63.96
50368;BME280;36281;34.132;-118.018;2023-03-26T10:18:38;100361.47;;;7.38;63.84
50368;BME280;36281;34.132;-118.018;2023-03-26T10:21:18;100357.84;;;7.39;64.26
50368;BME280;36281;34.132;-118.018;2023-03-26T10:24:09;100350.03;;;7.31;63.99
50368;BME280;36281;34.132;-118.018;2023-03-26T10:27:03;100354.44;;;7.31;63.85
50368;BME280;36281;34.132;-118.018;2023-03-26T10:32:37;100355.53;;;7.21;64.54
50368;BME280;36281;34.132;-118.018;2023-03-26T10:35:20;100356.50;;;7.20;64.62
50368;BME280;36281;34.132;-118.018;2023-03-26T10:38:21;100348.31;;;7.15;64.62
50368;BME280;36281;34.132;-118.018;2023-03-26T10:41:00;100358.22;;;7.13;65.03
50368;BME280;36281;34.132;-118.018;2023-03-26T10:49:53;100377.72;;;7.04;64.31
50368;BME280;36281;34.132;-118.018;2023-03-26T10:52:30;100402.09;;;7.06;64.58
50368;BME280;36281;34.132;-118.018;2023-03-26T10:55:09;100386.91;;;7.08;64.15
50368;BME280;36281;34.132;-118.018;2023-03-26T10:57:42;100393.88;;;7.01;64.07
50368;BME280;36281;34.132;-118.018;2023-03-26T11:00:18;100397.78;;;7.05;64.12
50368;BME280;36281;34.132;-118.018;2023-03-26T11:03:16;100394.03;;;6.99;64.70
50368;BME280;36281;34.132;-118.018;2023-03-26T11:05:55;100390.31;;;6.94;64.97
50368;BME280;36281;34.132;-118.018;2023-03-26T11:08:30;100386.03;;;6.93;65.40
50368;BME280;36281;34.132;-118.018;2023-03-26T11:11:13;100376.84;;;6.89;65.50
50368;BME280;36281;34.132;-118.018;2023-03-26T11:13:50;100371.91;;;6.86;65.61
50368;BME280;36281;34.132;-118.018;2023-03-26T11:16:28;100360.13;;;6.82;66.29
50368;BME280;36281;34.132;-118.018;2023-03-26T11:19:01;100358.00;;;6.77;66.69
50368;BME280;36281;34.132;-118.018;2023-03-26T11:21:39;100364.09;;;6.78;66.62
50368;BME280;36281;34.132;-118.018;2023-03-26T11:27:20;100382.53;;;6.78;65.23
50368;BME280;36281;34.132;-118.018;2023-03-26T11:30:02;100387.13;;;6.76;65.23
50368;BME280;36281;34.132;-118.018;2023-03-26T11:32:41;100391.75;;;6.73;65.55
50368;BME280;36281;34.132;-118.018;2023-03-26T11:35:18;100387.81;;;6.69;65.34
50368;BME280;36281;34.132;-118.018;2023-03-26T11:38:17;100394.72;;;6.70;66.06
50368;BME280;36281;34.132;-118.018;2023-03-26T11:40:51;100397.53;;;6.69;65.58
50368;BME280;36281;34.132;-118.018;2023-03-26T11:43:24;100404.31;;;6.63;66.30
50368;BME280;36281;34.132;-118.018;2023-03-26T11:45:55;100404.84;;;6.59;66.78
50368;BME280;36281;34.132;-118.018;2023-03-26T11:48:28;100410.31;;;6.49;66.59
50368;BME280;36281;34.132;-118.018;2023-03-26T11:51:01;100403.25;;;6.41;66.11
50368;BME280;36281;34.132;-118.018;2023-03-26T11:53:35;100405.56;;;6.44;66.70
50368;BME280;36281;34.132;-118.018;2023-03-26T11:56:12;100408.69;;;6.40;67.30
50368;BME280;36281;34.132;-118.018;2023-03-26T11:58:48;100404.75;;;6.36;66.97
50368;BME280;36281;34.132;-118.018;2023-03-26T12:01:23;100415.94;;;6.38;67.40
50368;BME280;36281;34.132;-118.018;2023-03-26T12:04:03;100405.75;;;6.35;67.29
50368;BME280;36281;34.132;-118.018;2023-03-26T12:06:35;100416.78;;;6.38;67.13
50368;BME280;36281;34.132;-118.018;2023-03-26T12:09:15;100416.78;;;6.38;66.83
50368;BME280;36281;34.132;-118.018;2023-03-26T12:11:46;100403.78;;;6.37;67.29
50368;BME280;36281;34.132;-118.018;2023-03-26T12:14:18;100399.56;;;6.28;67.95
50368;BME280;36281;34.132;-118.018;2023-03-26T12:17:03;100396.44;;;6.24;67.53
50368;BME280;36281;34.132;-118.018;2023-03-26T12:19:38;100391.88;;;6.18;68.24
50368;BME280;36281;34.132;-118.018;2023-03-26T12:22:26;100392.00;;;6.16;67.96
50368;BME280;36281;34.132;-118.018;2023-03-26T12:25:14;100393.66;;;6.17;67.79
50368;BME280;36281;34.132;-118.018;2023-03-26T12:27:46;100398.75;;;6.19;67.99
50368;BME280;36281;34.132;-118.018;2023-03-26T12:30:20;100401.38;;;6.19;68.18
50368;BME280;36281;34.132;-118.018;2023-03-26T12:32:56;100401.25;;;6.12;68.17
50368;BME280;36281;34.132;-118.018;2023-03-26T12:35:29;100406.03;;;6.09;68.12
50368;BME280;36281;34.132;-118.018;2023-03-26T12:38:15;100404.88;;;6.03;68.25
50368;BME280;36281;34.132;-118.018;2023-03-26T12:41:03;100410.47;;;6.00;68.99
50368;BME280;36281;34.132;-118.018;2023-03-26T12:43:38;100411.47;;;5.99;68.94
50368;BME280;36281;34.132;-118.018;2023-03-26T12:46:29;100410.81;;;5.89;69.77
50368;BME280;36281;34.132;-118.018;2023-03-26T12:49:20;100412.44;;;5.82;70.24
50368;BME280;36281;34.132;-118.018;2023-03-26T12:51:52;100413.13;;;5.84;70.68
50368;BME280;36281;34.132;-118.018;2023-03-26T12:54:34;100410.66;;;5.82;70.44
50368;BME280;36281;34.132;-118.018;2023-03-26T12:57:17;100417.06;;;5.80;70.15
50368;BME280;36281;34.132;-118.018;2023-03-26T13:03:06;100423.31;;;5.70;71.27
50368;BME280;36281;34.132;-118.018;2023-03-26T13:06:01;100415.78;;;5.67;71.27
50368;BME280;36281;34.132;-118.018;2023-03-26T13:09:00;100426.94;;;5.61;71.19
50368;BME280;36281;34.132;-118.018;2023-03-26T13:11:41;100434.19;;;5.67;70.45
50368;BME280;36281;34.132;-118.018;2023-03-26T13:14:27;100443.03;;;5.66;70.46
50368;BME280;36281;34.132;-118.018;2023-03-26T13:17:03;100441.88;;;5.61;69.66
50368;BME280;36281;34.132;-118.018;2023-03-26T13:19:41;100444.69;;;5.59;70.07
50368;BME280;36281;34.132;-118.018;2023-03-26T13:22:21;100456.81;;;5.60;69.98
50368;BME280;36281;34.132;-118.018;2023-03-26T13:25:00;100452.75;;;5.58;70.39
50368;BME280;36281;34.132;-118.018;2023-03-26T13:27:39;100451.25;;;5.55;69.99
50368;BME280;36281;34.132;-118.018;2023-03-26T13:30:22;100455.50;;;5.56;70.36
50368;BME280;36281;34.132;-118.018;2023-03-26T13:33:21;100459.63;;;5.51;70.34
50368;BME280;36281;34.132;-118.018;2023-03-26T13:35:59;100473.44;;;5.53;70.42
50368;BME280;36281;34.132;-118.018;2023-03-26T13:38:58;100475.25;;;5.52;71.37
50368;BME280;36281;34.132;-118.018;2023-03-26T13:41:42;100467.84;;;5.48;71.11
50368;BME280;36281;34.132;-118.018;2023-03-26T13:44:18;100487.06;;;5.48;71.28
50368;BME280;36281;34.132;-118.018;2023-03-26T13:46:55;100483.75;;;5.46;71.60
50368;BME280;36281;34.132;-118.018;2023-03-26T13:49:31;100494.94;;;5.48;72.07
50368;BME280;36281;34.132;-118.018;2023-03-26T13:52:09;100494.75;;;5.50;72.32